createdAt,value
2023-02-07T00:00:27.048Z,11
2023-02-07T00:01:26.952Z,11
2023-02-07T00:02:27.014Z,13
2023-02-07T00:03:27.207Z,14
2023-02-07T00:04:26.983Z,12
2023-02-07T00:05:27.111Z,10
2023-02-07T00:06:26.943Z,14
2023-02-07T00:07:27.650Z,12
2023-02-07T00:08:27.385Z,10
2023-02-07T00:09:27.401Z,11
2023-02-07T00:10:26.990Z,12
2023-02-07T00:11:27.606Z,10
2023-02-07T00:12:27.321Z,11
2023-02-07T00:13:26.889Z,13
2023-02-07T00:14:27.406Z,10
2023-02-07T00:15:27.554Z,9
2023-02-07T00:16:27.439Z,11
2023-02-07T00:17:27.334Z,12
2023-02-07T00:18:26.883Z,13
2023-02-07T00:19:26.951Z,13
2023-02-07T00:20:27.425Z,11
2023-02-07T00:21:27.666Z,11
2023-02-07T00:22:26.992Z,12
2023-02-07T00:23:26.872Z,13
2023-02-07T00:24:27.613Z,13
2023-02-07T00:25:26.987Z,12
2023-02-07T00:26:27.243Z,12
2023-02-07T00:27:26.883Z,15
2023-02-07T00:28:27.040Z,13
2023-02-07T00:29:27.024Z,13
2023-02-07T00:30:32.471Z,12
2023-02-07T00:31:27.617Z,11
2023-02-07T00:32:26.883Z,13
2023-02-07T00:33:27.757Z,9
2023-02-07T00:34:27.445Z,9
2023-02-07T00:35:27.459Z,12
2023-02-07T00:36:26.948Z,13
2023-02-07T00:37:26.861Z,14
2023-02-07T00:38:26.964Z,11
2023-02-07T00:39:27.483Z,13
2023-02-07T00:40:27.017Z,13
2023-02-07T00:41:26.997Z,14
2023-02-07T00:42:27.298Z,12
2023-02-07T00:43:29.936Z,10
2023-02-07T00:44:27.438Z,13
2023-02-07T00:45:26.880Z,13
2023-02-07T00:46:26.953Z,14
2023-02-07T00:47:26.904Z,11
2023-02-07T00:48:27.549Z,14
2023-02-07T00:49:26.906Z,15
2023-02-07T00:50:27.299Z,15
2023-02-07T00:51:27.679Z,12
2023-02-07T00:52:27.566Z,13
2023-02-07T00:53:27.274Z,13
2023-02-07T00:54:27.282Z,14
2023-02-07T00:55:27.591Z,15
2023-02-07T00:56:26.890Z,14
2023-02-07T00:57:27.581Z,12
2023-02-07T00:58:26.990Z,14
2023-02-07T00:59:26.896Z,13
2023-02-07T01:00:27.793Z,11
2023-02-07T01:01:27.185Z,12
2023-02-07T01:03:27.244Z,10
2023-02-07T01:04:27.699Z,11
2023-02-07T01:05:26.936Z,12
2023-02-07T01:06:27.556Z,12
2023-02-07T01:07:27.168Z,11
2023-02-07T01:08:27.155Z,12
2023-02-07T01:09:27.920Z,10
2023-02-07T01:10:26.883Z,13
2023-02-07T01:11:27.126Z,11
2023-02-07T01:12:26.911Z,10
2023-02-07T01:13:27.737Z,14
2023-02-07T01:14:27.314Z,12
2023-02-07T01:15:27.004Z,11
2023-02-07T01:16:27.231Z,11
2023-02-07T01:17:26.913Z,12
2023-02-07T01:18:27.842Z,12
2023-02-07T01:19:27.040Z,11
2023-02-07T01:20:27.398Z,9
2023-02-07T01:21:27.559Z,10
2023-02-07T01:22:26.930Z,13
2023-02-07T01:23:27.579Z,12
2023-02-07T01:24:27.181Z,11
2023-02-07T01:25:27.137Z,11
2023-02-07T01:26:27.789Z,11
2023-02-07T01:27:27.434Z,11
2023-02-07T01:28:27.036Z,12
2023-02-07T01:29:27.096Z,11
2023-02-07T01:30:27.731Z,11
2023-02-07T01:31:27.351Z,10
2023-02-07T01:32:27.518Z,11
2023-02-07T01:33:27.828Z,13
2023-02-07T01:34:27.748Z,11
2023-02-07T01:35:26.933Z,9
2023-02-07T01:36:26.882Z,12
2023-02-07T01:37:27.450Z,9
2023-02-07T01:38:26.909Z,12
2023-02-07T01:39:27.939Z,10
2023-02-07T01:40:27.326Z,11
2023-02-07T01:41:27.196Z,10
2023-02-07T01:42:27.275Z,10
2023-02-07T01:43:27.377Z,8
2023-02-07T01:44:27.001Z,11
2023-02-07T01:45:27.732Z,10
2023-02-07T01:46:26.953Z,10
2023-02-07T01:47:26.879Z,10
2023-02-07T01:48:26.869Z,11
2023-02-07T01:49:26.902Z,11
2023-02-07T01:50:27.078Z,11
2023-02-07T01:51:27.557Z,8
2023-02-07T01:52:26.874Z,11
2023-02-07T01:53:26.873Z,8
2023-02-07T01:54:26.856Z,8
2023-02-07T01:55:27.378Z,11
2023-02-07T01:56:31.901Z,10
2023-02-07T01:57:26.955Z,11
2023-02-07T01:58:27.387Z,8
2023-02-07T01:59:27.008Z,10
2023-02-07T02:00:27.186Z,8
2023-02-07T02:01:27.436Z,11
2023-02-07T02:02:26.883Z,9
2023-02-07T02:03:27.072Z,12
2023-02-07T02:04:27.712Z,11
2023-02-07T02:05:26.882Z,10
2023-02-07T02:06:26.859Z,10
2023-02-07T02:07:29.212Z,8
2023-02-07T02:08:27.641Z,9
2023-02-07T02:09:27.648Z,9
2023-02-07T02:10:26.888Z,11
2023-02-07T02:11:26.923Z,9
2023-02-07T02:12:26.890Z,11
2023-02-07T02:13:26.878Z,8
2023-02-07T02:14:27.475Z,9
2023-02-07T02:15:27.009Z,9
2023-02-07T02:16:27.004Z,10
2023-02-07T02:17:26.983Z,9
2023-02-07T02:18:27.011Z,10
2023-02-07T02:19:26.866Z,9
2023-02-07T02:20:27.444Z,10
2023-02-07T02:21:27.660Z,9
2023-02-07T02:22:27.424Z,12
2023-02-07T02:23:27.335Z,9
2023-02-07T02:24:26.867Z,8
2023-02-07T02:25:27.556Z,7
2023-02-07T02:26:27.461Z,9
2023-02-07T02:27:26.938Z,9
2023-02-07T02:28:27.789Z,10
2023-02-07T02:29:27.356Z,8
2023-02-07T02:30:27.791Z,11
2023-02-07T02:31:27.115Z,7
2023-02-07T02:32:27.697Z,8
2023-02-07T02:33:27.616Z,7
2023-02-07T02:34:26.888Z,9
2023-02-07T02:35:26.915Z,8
2023-02-07T02:36:27.731Z,7
2023-02-07T02:37:27.519Z,7
2023-02-07T02:38:27.527Z,6
2023-02-07T02:39:27.824Z,7
2023-02-07T02:40:26.913Z,7
2023-02-07T02:41:26.951Z,8
2023-02-07T02:42:27.668Z,6
2023-02-07T02:43:27.662Z,7
2023-02-07T02:44:26.953Z,7
2023-02-07T02:45:26.873Z,8
2023-02-07T02:46:27.198Z,6
2023-02-07T02:47:27.393Z,8
2023-02-07T02:48:26.991Z,7
2023-02-07T02:49:27.801Z,8
2023-02-07T02:50:27.217Z,9
2023-02-07T02:51:27.261Z,8
2023-02-07T02:52:41.393Z,8
2023-02-07T02:53:27.530Z,6
2023-02-07T02:54:27.015Z,5
2023-02-07T02:55:28.985Z,5
2023-02-07T02:56:27.557Z,6
2023-02-07T02:57:27.468Z,5
2023-02-07T02:58:27.051Z,6
2023-02-07T02:59:27.678Z,6
2023-02-07T03:00:27.716Z,5
2023-02-07T03:01:27.665Z,6
2023-02-07T03:02:27.594Z,5
2023-02-07T03:03:26.871Z,5
2023-02-07T03:04:27.284Z,6
2023-02-07T03:05:26.933Z,6
2023-02-07T03:06:27.830Z,5
2023-02-07T03:07:27.407Z,5
2023-02-07T03:08:27.832Z,5
2023-02-07T03:09:27.138Z,6
2023-02-07T03:10:26.922Z,5
2023-02-07T03:11:27.143Z,5
2023-02-07T03:12:26.880Z,5
2023-02-07T03:13:27.831Z,5
2023-02-07T03:14:26.864Z,4
2023-02-07T03:15:26.955Z,4
2023-02-07T03:16:27.052Z,5
2023-02-07T03:17:26.964Z,6
2023-02-07T03:18:25.757Z,5
2023-02-07T03:19:27.474Z,4
2023-02-07T03:20:27.293Z,5
2023-02-07T03:21:27.060Z,5
2023-02-07T03:22:26.865Z,4
2023-02-07T03:23:27.317Z,4
2023-02-07T03:24:27.241Z,4
2023-02-07T03:25:27.564Z,5
2023-02-07T03:26:27.305Z,4
2023-02-07T03:27:27.302Z,5
2023-02-07T03:28:26.867Z,5
2023-02-07T03:29:26.859Z,4
2023-02-07T03:30:27.237Z,5
2023-02-07T03:31:26.921Z,5
2023-02-07T03:32:27.572Z,4
2023-02-07T03:33:26.882Z,5
2023-02-07T03:34:26.877Z,4
2023-02-07T03:35:26.865Z,4
2023-02-07T03:36:26.886Z,4
2023-02-07T03:37:27.615Z,4
2023-02-07T03:38:26.898Z,5
2023-02-07T03:39:26.885Z,5
2023-02-07T03:40:27.320Z,4
2023-02-07T03:41:26.931Z,4
2023-02-07T03:42:25.698Z,4
2023-02-07T03:43:27.750Z,4
2023-02-07T03:44:27.145Z,5
2023-02-07T03:45:27.742Z,4
2023-02-07T03:46:27.682Z,5
2023-02-07T03:47:27.571Z,5
2023-02-07T03:48:27.325Z,4
2023-02-07T03:49:26.879Z,4
2023-02-07T03:50:27.193Z,4
2023-02-07T03:51:26.866Z,4
2023-02-07T03:52:27.899Z,5
2023-02-07T03:53:26.855Z,5
2023-02-07T03:54:26.929Z,5
2023-02-07T03:55:26.858Z,7
2023-02-07T03:56:27.312Z,7
2023-02-07T03:57:26.876Z,5
2023-02-07T03:58:27.367Z,6
2023-02-07T03:59:27.711Z,6
2023-02-07T04:00:26.859Z,7
2023-02-07T04:01:27.407Z,6
2023-02-07T04:02:26.931Z,5
2023-02-07T04:03:26.896Z,6
2023-02-07T04:04:26.859Z,6
2023-02-07T04:05:26.997Z,6
2023-02-07T04:06:26.040Z,6
2023-02-07T04:07:26.995Z,6
2023-02-07T04:08:26.855Z,5
2023-02-07T04:09:26.856Z,5
2023-02-07T04:10:27.005Z,5
2023-02-07T04:11:27.735Z,6
2023-02-07T04:12:27.251Z,5
2023-02-07T04:13:27.413Z,5
2023-02-07T04:14:26.940Z,5
2023-02-07T04:15:26.929Z,6
2023-02-07T04:16:27.000Z,5
2023-02-07T04:17:29.505Z,5
2023-02-07T04:18:26.949Z,6
2023-02-07T04:19:27.768Z,5
2023-02-07T04:20:27.386Z,5
2023-02-07T04:21:26.927Z,5
2023-02-07T04:22:27.188Z,5
2023-02-07T04:23:26.852Z,7
2023-02-07T04:24:27.407Z,6
2023-02-07T04:25:27.330Z,5
2023-02-07T04:26:27.574Z,5
2023-02-07T04:27:26.934Z,6
2023-02-07T04:28:27.232Z,6
2023-02-07T04:29:27.529Z,7
2023-02-07T04:30:26.961Z,5
2023-02-07T04:31:27.040Z,5
2023-02-07T04:32:27.569Z,6
2023-02-07T04:33:27.633Z,6
2023-02-07T04:34:27.685Z,5
2023-02-07T04:35:27.335Z,6
2023-02-07T04:36:27.486Z,6
2023-02-07T04:37:26.917Z,5
2023-02-07T04:38:26.864Z,6
2023-02-07T04:39:27.431Z,6
2023-02-07T04:40:27.289Z,5
2023-02-07T04:41:26.901Z,6
2023-02-07T04:42:27.508Z,5
2023-02-07T04:43:26.906Z,5
2023-02-07T04:44:26.904Z,6
2023-02-07T04:45:26.905Z,6
2023-02-07T04:46:27.057Z,5
2023-02-07T04:47:27.352Z,5
2023-02-07T04:48:27.502Z,6
2023-02-07T04:49:27.125Z,6
2023-02-07T04:50:27.385Z,5
2023-02-07T04:51:27.068Z,5
2023-02-07T04:52:27.661Z,6
2023-02-07T04:53:27.666Z,6
2023-02-07T04:54:27.409Z,5
2023-02-07T04:55:26.866Z,7
2023-02-07T04:56:27.623Z,5
2023-02-07T04:57:27.409Z,5
2023-02-07T04:58:27.592Z,6
2023-02-07T04:59:27.531Z,6
2023-02-07T05:00:27.012Z,5
2023-02-07T05:01:27.132Z,7
2023-02-07T05:02:26.847Z,6
2023-02-07T05:03:27.115Z,5
2023-02-07T05:04:27.015Z,5
2023-02-07T05:05:26.948Z,6
2023-02-07T05:06:27.560Z,6
2023-02-07T05:07:27.680Z,6
2023-02-07T05:08:27.168Z,6
2023-02-07T05:09:27.576Z,6
2023-02-07T05:10:26.975Z,5
2023-02-07T05:11:26.850Z,7
2023-02-07T05:12:27.789Z,5
2023-02-07T05:13:26.849Z,6
2023-02-07T05:14:27.693Z,6
2023-02-07T05:15:26.868Z,6
2023-02-07T05:16:27.014Z,6
2023-02-07T05:17:27.418Z,5
2023-02-07T05:18:27.640Z,7
2023-02-07T05:19:29.081Z,7
2023-02-07T05:20:26.910Z,6
2023-02-07T05:21:27.258Z,6
2023-02-07T05:22:26.943Z,6
2023-02-07T05:23:26.959Z,5
2023-02-07T05:24:26.861Z,6
2023-02-07T05:25:27.375Z,6
2023-02-07T05:26:26.908Z,23
2023-02-07T05:27:26.895Z,11
2023-02-07T05:28:26.851Z,45
2023-02-07T05:29:29.258Z,14
2023-02-07T05:30:26.880Z,11
2023-02-07T05:31:27.031Z,12
2023-02-07T05:32:26.910Z,10
2023-02-07T05:33:26.910Z,10
2023-02-07T05:34:27.130Z,10
2023-02-07T05:35:27.516Z,9
2023-02-07T05:36:27.148Z,8
2023-02-07T05:37:26.936Z,7
2023-02-07T05:38:27.661Z,7
2023-02-07T05:39:26.841Z,7
2023-02-07T05:40:26.983Z,7
2023-02-07T05:41:27.618Z,8
2023-02-07T05:42:26.853Z,7
2023-02-07T05:43:26.854Z,6
2023-02-07T05:44:26.991Z,6
2023-02-07T05:45:27.094Z,6
2023-02-07T05:46:26.859Z,7
2023-02-07T05:47:27.323Z,6
2023-02-07T05:48:27.414Z,6
2023-02-07T05:49:27.833Z,6
2023-02-07T05:50:26.951Z,7
2023-02-07T05:51:26.864Z,9
2023-02-07T05:52:27.679Z,6
2023-02-07T05:53:27.437Z,6
2023-02-07T05:54:27.356Z,8
2023-02-07T05:55:26.891Z,6
2023-02-07T05:56:25.657Z,6
2023-02-07T05:57:26.862Z,6
2023-02-07T05:58:27.168Z,6
2023-02-07T05:59:27.589Z,6
2023-02-07T06:00:27.739Z,10
2023-02-07T06:01:27.211Z,6
2023-02-07T06:02:27.566Z,6
2023-02-07T06:03:27.541Z,5
2023-02-07T06:04:27.522Z,6
2023-02-07T06:05:27.171Z,6
2023-02-07T06:06:27.202Z,6
2023-02-07T06:07:27.259Z,6
2023-02-07T06:08:26.960Z,6
2023-02-07T06:09:26.934Z,6
2023-02-07T06:10:26.940Z,7
2023-02-07T06:11:27.278Z,6
2023-02-07T06:12:26.972Z,8
2023-02-07T06:13:26.861Z,8
2023-02-07T06:14:27.387Z,8
2023-02-07T06:15:27.382Z,7
2023-02-07T06:16:27.553Z,7
2023-02-07T06:17:26.913Z,6
2023-02-07T06:18:25.643Z,6
2023-02-07T06:19:26.950Z,6
2023-02-07T06:20:26.889Z,7
2023-02-07T06:21:37.613Z,6
2023-02-07T06:22:27.753Z,6
2023-02-07T06:23:26.928Z,6
2023-02-07T06:24:26.918Z,7
2023-02-07T06:25:26.839Z,6
2023-02-07T06:26:27.424Z,6
2023-02-07T06:27:27.443Z,6
2023-02-07T06:28:27.377Z,7
2023-02-07T06:29:26.852Z,7
2023-02-07T06:30:26.924Z,6
2023-02-07T06:31:26.918Z,7
2023-02-07T06:32:26.894Z,6
2023-02-07T06:33:26.896Z,7
2023-02-07T06:34:27.417Z,7
2023-02-07T06:35:27.229Z,6
2023-02-07T06:36:27.325Z,6
2023-02-07T06:37:27.076Z,7
2023-02-07T06:38:27.870Z,7
2023-02-07T06:39:26.929Z,6
2023-02-07T06:40:26.250Z,7
2023-02-07T06:41:26.861Z,7
2023-02-07T06:42:27.164Z,6
2023-02-07T06:43:26.831Z,6
2023-02-07T06:44:27.543Z,6
2023-02-07T06:45:26.914Z,7
2023-02-07T06:46:26.972Z,7
2023-02-07T06:47:27.663Z,6
2023-02-07T06:48:26.853Z,7
2023-02-07T06:49:26.830Z,6
2023-02-07T06:50:27.550Z,7
2023-02-07T06:51:26.843Z,6
2023-02-07T06:52:26.911Z,6
2023-02-07T06:53:27.359Z,7
2023-02-07T06:54:26.882Z,7
2023-02-07T06:55:26.932Z,6
2023-02-07T06:56:26.953Z,7
2023-02-07T06:57:27.149Z,6
2023-02-07T06:58:26.834Z,6
2023-02-07T06:59:27.613Z,6
2023-02-07T07:00:26.955Z,7
2023-02-07T07:01:27.555Z,6
2023-02-07T07:02:27.087Z,9
2023-02-07T07:03:26.848Z,6
2023-02-07T07:04:26.848Z,7
2023-02-07T07:05:27.490Z,6
2023-02-07T07:06:26.849Z,6
2023-02-07T07:07:27.286Z,7
2023-02-07T07:08:27.055Z,6
2023-02-07T07:09:27.115Z,7
2023-02-07T07:10:26.935Z,6
2023-02-07T07:11:26.962Z,6
2023-02-07T07:12:27.885Z,7
2023-02-07T07:13:26.981Z,7
2023-02-07T07:14:28.203Z,7
2023-02-07T07:15:27.504Z,8
2023-02-07T07:16:26.952Z,6
2023-02-07T07:17:27.007Z,6
2023-02-07T07:18:26.846Z,6
2023-02-07T07:19:27.713Z,7
2023-02-07T07:20:27.454Z,7
2023-02-07T07:21:27.733Z,7
2023-02-07T07:22:27.339Z,6
2023-02-07T07:23:27.333Z,6
2023-02-07T07:24:27.423Z,7
2023-02-07T07:25:26.841Z,6
2023-02-07T07:26:33.705Z,6
2023-02-07T07:27:27.503Z,6
2023-02-07T07:28:27.724Z,6
2023-02-07T07:29:26.978Z,6
2023-02-07T07:30:26.871Z,6
2023-02-07T07:31:26.938Z,5
2023-02-07T07:33:26.896Z,6
2023-02-07T07:34:27.542Z,6
2023-02-07T07:35:27.471Z,5
2023-02-07T07:36:27.567Z,5
2023-02-07T07:37:27.743Z,6
2023-02-07T07:38:26.850Z,6
2023-02-07T07:39:27.429Z,7
2023-02-07T07:40:27.277Z,6
2023-02-07T07:41:26.862Z,6
2023-02-07T07:42:27.451Z,7
2023-02-07T07:43:26.820Z,6
2023-02-07T07:44:27.381Z,6
2023-02-07T07:45:27.491Z,6
2023-02-07T07:46:26.915Z,6
2023-02-07T07:47:27.616Z,6
2023-02-07T07:48:27.148Z,5
2023-02-07T07:49:27.701Z,5
2023-02-07T07:50:27.030Z,6
2023-02-07T07:51:26.874Z,16
2023-02-07T07:52:26.937Z,6
2023-02-07T07:53:27.423Z,7
2023-02-07T07:54:27.643Z,6
2023-02-07T07:55:26.859Z,6
2023-02-07T07:56:27.251Z,7
2023-02-07T07:57:27.067Z,6
2023-02-07T07:58:27.265Z,6
2023-02-07T07:59:26.964Z,5
2023-02-07T08:00:27.173Z,8
2023-02-07T08:01:26.974Z,6
2023-02-07T08:02:26.963Z,6
2023-02-07T08:03:27.201Z,6
2023-02-07T08:04:27.514Z,6
2023-02-07T08:05:26.817Z,6
2023-02-07T08:06:26.848Z,7
2023-02-07T08:07:27.473Z,6
2023-02-07T08:08:27.215Z,7
2023-02-07T08:09:25.683Z,7
2023-02-07T08:10:27.182Z,7
2023-02-07T08:11:26.855Z,8
2023-02-07T08:12:26.859Z,7
2023-02-07T08:13:29.557Z,7
2023-02-07T08:14:27.481Z,8
2023-02-07T08:15:27.387Z,8
2023-02-07T08:16:27.099Z,8
2023-02-07T08:17:26.904Z,8
2023-02-07T08:18:26.825Z,8
2023-02-07T08:19:26.824Z,9
2023-02-07T08:20:27.460Z,11
2023-02-07T08:21:26.906Z,9
2023-02-07T08:22:27.561Z,10
2023-02-07T08:23:27.418Z,8
2023-02-07T08:24:26.947Z,9
2023-02-07T08:25:27.253Z,9
2023-02-07T08:26:26.926Z,9
2023-02-07T08:27:27.682Z,10
2023-02-07T08:28:27.004Z,12
2023-02-07T08:29:27.265Z,11
2023-02-07T08:30:26.830Z,8
2023-02-07T08:31:26.815Z,8
2023-02-07T08:32:26.850Z,7
2023-02-07T08:33:29.392Z,8
2023-02-07T08:34:27.199Z,9
2023-02-07T08:35:27.829Z,8
2023-02-07T08:36:26.865Z,8
2023-02-07T08:37:27.489Z,7
2023-02-07T08:38:26.815Z,7
2023-02-07T08:39:26.966Z,8
2023-02-07T08:40:26.980Z,7
2023-02-07T08:41:26.827Z,8
2023-02-07T08:42:26.908Z,8
2023-02-07T08:43:26.862Z,8
2023-02-07T08:44:26.837Z,7
2023-02-07T08:45:28.702Z,8
2023-02-07T08:46:27.309Z,8
2023-02-07T08:47:27.294Z,9
2023-02-07T08:48:26.861Z,7
2023-02-07T08:49:27.305Z,9
2023-02-07T08:50:27.077Z,8
2023-02-07T08:51:27.063Z,7
2023-02-07T08:52:29.697Z,8
2023-02-07T08:53:26.168Z,8
2023-02-07T08:54:26.975Z,8
2023-02-07T08:55:26.872Z,9
2023-02-07T08:56:26.930Z,8
2023-02-07T08:57:27.734Z,8
2023-02-07T08:58:27.379Z,8
2023-02-07T08:59:26.883Z,8
2023-02-07T09:00:27.200Z,8
2023-02-07T09:01:27.237Z,8
2023-02-07T09:02:29.133Z,8
2023-02-07T09:03:27.529Z,8
2023-02-07T09:04:27.377Z,8
2023-02-07T09:05:27.218Z,8
2023-02-07T09:06:26.875Z,8
2023-02-07T09:07:27.604Z,7
2023-02-07T09:08:26.839Z,7
2023-02-07T09:09:26.799Z,8
2023-02-07T09:10:26.828Z,7
2023-02-07T09:11:27.645Z,7
2023-02-07T09:12:27.559Z,7
2023-02-07T09:13:27.553Z,7
2023-02-07T09:14:27.536Z,7
2023-02-07T09:15:27.036Z,8
2023-02-07T09:16:27.279Z,8
2023-02-07T09:17:27.298Z,7
2023-02-07T09:18:27.051Z,7
2023-02-07T09:19:26.964Z,9
2023-02-07T09:20:26.801Z,9
2023-02-07T09:21:27.380Z,8
2023-02-07T09:22:26.854Z,7
2023-02-07T09:23:26.822Z,7
2023-02-07T09:24:26.850Z,7
2023-02-07T09:25:27.518Z,7
2023-02-07T09:26:26.962Z,8
2023-02-07T09:27:27.227Z,7
2023-02-07T09:28:26.922Z,8
2023-02-07T09:29:27.130Z,8
2023-02-07T09:30:26.868Z,9
2023-02-07T09:31:26.978Z,7
2023-02-07T09:32:26.891Z,8
2023-02-07T09:33:27.566Z,8
2023-02-07T09:34:27.689Z,8
2023-02-07T09:35:27.446Z,8
2023-02-07T09:36:26.804Z,8
2023-02-07T09:37:27.021Z,7
2023-02-07T09:38:27.526Z,8
2023-02-07T09:39:27.398Z,8
2023-02-07T09:40:27.605Z,7
2023-02-07T09:41:26.899Z,8
2023-02-07T09:42:27.539Z,15
2023-02-07T09:43:27.181Z,10
2023-02-07T09:44:27.167Z,9
2023-02-07T09:45:27.145Z,7
2023-02-07T09:46:26.841Z,7
2023-02-07T09:47:27.488Z,8
2023-02-07T09:48:27.784Z,9
2023-02-07T09:49:27.134Z,9
2023-02-07T09:50:26.967Z,7
2023-02-07T09:51:26.975Z,8
2023-02-07T09:52:27.147Z,8
2023-02-07T09:53:27.091Z,8
2023-02-07T09:54:27.654Z,8
2023-02-07T09:55:27.249Z,8
2023-02-07T09:56:27.068Z,8
2023-02-07T09:57:27.532Z,8
2023-02-07T09:58:26.928Z,8
2023-02-07T09:59:26.997Z,8
2023-02-07T10:00:25.714Z,8
2023-02-07T10:01:26.946Z,9
2023-02-07T10:02:27.321Z,10
2023-02-07T10:03:27.780Z,8
2023-02-07T10:04:26.834Z,8
2023-02-07T10:05:26.905Z,9
2023-02-07T10:06:26.860Z,8
2023-02-07T10:07:26.913Z,9
2023-02-07T10:08:36.375Z,8
2023-02-07T10:09:26.885Z,8
2023-02-07T10:10:27.196Z,9
2023-02-07T10:11:26.948Z,9
2023-02-07T10:12:27.620Z,10
2023-02-07T10:13:27.650Z,10
2023-02-07T10:14:27.675Z,8
2023-02-07T10:15:26.913Z,9
2023-02-07T10:16:27.709Z,8
2023-02-07T10:17:31.509Z,9
2023-02-07T10:18:27.461Z,10
2023-02-07T10:19:26.822Z,8
2023-02-07T10:20:27.042Z,8
2023-02-07T10:21:27.452Z,9
2023-02-07T10:22:26.889Z,10
2023-02-07T10:23:27.196Z,8
2023-02-07T10:24:26.207Z,8
2023-02-07T10:25:26.959Z,9
2023-02-07T10:26:28.003Z,8
2023-02-07T10:27:26.812Z,8
2023-02-07T10:28:27.735Z,9
2023-02-07T10:29:27.386Z,11
2023-02-07T10:30:26.947Z,9
2023-02-07T10:31:27.174Z,8
2023-02-07T10:32:26.860Z,10
2023-02-07T10:33:26.832Z,9
2023-02-07T10:34:27.364Z,9
2023-02-07T10:35:26.837Z,9
2023-02-07T10:36:26.850Z,10
2023-02-07T10:37:27.467Z,9
2023-02-07T10:38:27.088Z,9
2023-02-07T10:39:26.871Z,9
2023-02-07T10:40:26.932Z,10
2023-02-07T10:41:26.952Z,9
2023-02-07T10:42:27.587Z,9
2023-02-07T10:43:26.823Z,8
2023-02-07T10:44:27.211Z,9
2023-02-07T10:45:26.977Z,7
2023-02-07T10:46:27.336Z,9
2023-02-07T10:47:27.070Z,9
2023-02-07T10:48:27.368Z,9
2023-02-07T10:49:27.462Z,9
2023-02-07T10:50:41.734Z,8
2023-02-07T10:51:26.798Z,8
2023-02-07T10:52:26.795Z,8
2023-02-07T10:53:26.861Z,9
2023-02-07T10:54:26.912Z,8
2023-02-07T10:55:26.876Z,9
2023-02-07T10:56:27.029Z,9
2023-02-07T10:57:26.809Z,8
2023-02-07T10:58:27.828Z,10
2023-02-07T10:59:26.815Z,8
2023-02-07T11:00:27.648Z,9
2023-02-07T11:01:27.371Z,8
2023-02-07T11:02:27.764Z,9
2023-02-07T11:03:27.277Z,9
2023-02-07T11:04:26.844Z,9
2023-02-07T11:05:27.220Z,9
2023-02-07T11:06:26.793Z,10
2023-02-07T11:07:27.492Z,8
2023-02-07T11:08:27.008Z,9
2023-02-07T11:09:26.807Z,9
2023-02-07T11:10:27.284Z,9
2023-02-07T11:11:27.633Z,10
2023-02-07T11:12:26.884Z,8
2023-02-07T11:13:28.855Z,8
2023-02-07T11:14:27.727Z,10
2023-02-07T11:15:27.339Z,8
2023-02-07T11:16:26.847Z,8
2023-02-07T11:17:26.954Z,9
2023-02-07T11:18:27.476Z,9
2023-02-07T11:19:26.840Z,8
2023-02-07T11:20:27.008Z,9
2023-02-07T11:21:26.795Z,8
2023-02-07T11:22:27.666Z,8
2023-02-07T11:23:27.587Z,9
2023-02-07T11:24:26.811Z,8
2023-02-07T11:25:26.876Z,9
2023-02-07T11:26:27.240Z,8
2023-02-07T11:27:26.802Z,11
2023-02-07T11:28:27.328Z,9
2023-02-07T11:29:27.406Z,8
2023-02-07T11:30:27.244Z,7
2023-02-07T11:31:25.749Z,8
2023-02-07T11:32:27.256Z,8
2023-02-07T11:33:27.472Z,6
2023-02-07T11:34:27.647Z,6
2023-02-07T11:35:26.791Z,6
2023-02-07T11:36:26.785Z,8
2023-02-07T11:37:27.656Z,7
2023-02-07T11:38:27.339Z,7
2023-02-07T11:39:26.853Z,7
2023-02-07T11:40:27.577Z,7
2023-02-07T11:41:27.527Z,7
2023-02-07T11:42:26.877Z,8
2023-02-07T11:43:27.716Z,7
2023-02-07T11:44:29.688Z,7
2023-02-07T11:45:26.901Z,7
2023-02-07T11:46:27.767Z,8
2023-02-07T11:47:27.724Z,7
2023-02-07T11:48:26.993Z,6
2023-02-07T11:49:26.791Z,8
2023-02-07T11:50:28.570Z,6
2023-02-07T11:51:26.849Z,7
2023-02-07T11:52:27.338Z,8
2023-02-07T11:53:26.816Z,8
2023-02-07T11:54:27.161Z,7
2023-02-07T11:55:26.827Z,8
2023-02-07T11:56:26.804Z,6
2023-02-07T11:57:27.786Z,6
2023-02-07T11:58:27.295Z,6
2023-02-07T11:59:26.878Z,5
2023-02-07T12:00:26.901Z,7
2023-02-07T12:01:26.817Z,6
2023-02-07T12:02:27.377Z,6
2023-02-07T12:03:27.433Z,6
2023-02-07T12:04:26.822Z,6
2023-02-07T12:05:26.805Z,7
2023-02-07T12:06:27.192Z,6
2023-02-07T12:07:26.864Z,5
2023-02-07T12:08:27.167Z,6
2023-02-07T12:09:27.466Z,7
2023-02-07T12:10:27.476Z,6
2023-02-07T12:11:26.863Z,6
2023-02-07T12:12:26.794Z,6
2023-02-07T12:13:26.893Z,6
2023-02-07T12:14:27.178Z,6
2023-02-07T12:15:27.651Z,6
2023-02-07T12:16:27.548Z,6
2023-02-07T12:17:27.344Z,8
2023-02-07T12:18:26.978Z,5
2023-02-07T12:19:26.945Z,5
2023-02-07T12:20:26.865Z,7
2023-02-07T12:21:26.926Z,6
2023-02-07T12:22:27.544Z,5
2023-02-07T12:23:40.730Z,6
2023-02-07T12:24:27.255Z,6
2023-02-07T12:25:26.821Z,6
2023-02-07T12:26:26.806Z,6
2023-02-07T12:27:26.869Z,5
2023-02-07T12:28:26.885Z,5
2023-02-07T12:29:26.976Z,6
2023-02-07T12:30:26.889Z,6
2023-02-07T12:31:27.907Z,7
2023-02-07T12:32:27.189Z,6
2023-02-07T12:33:27.092Z,5
2023-02-07T12:34:27.845Z,6
2023-02-07T12:35:26.878Z,5
2023-02-07T12:36:26.837Z,5
2023-02-07T12:37:27.174Z,5
2023-02-07T12:38:25.637Z,6
2023-02-07T12:39:27.091Z,5
2023-02-07T12:40:27.358Z,6
2023-02-07T12:41:26.829Z,5
2023-02-07T12:42:26.886Z,5
2023-02-07T12:43:27.802Z,5
2023-02-07T12:44:27.381Z,6
2023-02-07T12:45:26.961Z,5
2023-02-07T12:46:27.399Z,6
2023-02-07T12:47:26.898Z,5
2023-02-07T12:48:26.925Z,5
2023-02-07T12:49:27.627Z,5
2023-02-07T12:50:26.836Z,7
2023-02-07T12:51:27.782Z,5
2023-02-07T12:52:27.509Z,6
2023-02-07T12:53:28.874Z,4
2023-02-07T12:54:27.184Z,6
2023-02-07T12:55:26.844Z,5
2023-02-07T12:56:27.195Z,4
2023-02-07T12:57:26.864Z,5
2023-02-07T12:58:26.821Z,5
2023-02-07T12:59:27.277Z,5
2023-02-07T13:00:26.259Z,6
2023-02-07T13:01:27.643Z,4
2023-02-07T13:02:26.937Z,5
2023-02-07T13:03:26.930Z,4
2023-02-07T13:04:27.259Z,5
2023-02-07T13:05:27.444Z,6
2023-02-07T13:06:26.913Z,5
2023-02-07T13:07:26.897Z,5
2023-02-07T13:08:27.522Z,6
2023-02-07T13:09:27.337Z,5
2023-02-07T13:10:26.847Z,5
2023-02-07T13:11:27.153Z,5
2023-02-07T13:12:26.847Z,5
2023-02-07T13:13:27.598Z,5
2023-02-07T13:14:27.461Z,5
2023-02-07T13:15:26.827Z,4
2023-02-07T13:16:27.738Z,5
2023-02-07T13:17:26.867Z,9
2023-02-07T13:18:27.423Z,28
2023-02-07T13:19:27.699Z,8
2023-02-07T13:20:26.792Z,8
2023-02-07T13:21:26.828Z,5
2023-02-07T13:22:26.830Z,4
2023-02-07T13:23:28.555Z,6
2023-02-07T13:24:27.216Z,14
2023-02-07T13:25:27.644Z,15
2023-02-07T13:26:27.141Z,8
2023-02-07T13:27:27.063Z,7
2023-02-07T13:28:26.923Z,6
2023-02-07T13:29:26.791Z,6
2023-02-07T13:30:26.829Z,6
2023-02-07T13:31:27.276Z,10
2023-02-07T13:32:27.136Z,13
2023-02-07T13:33:26.868Z,9
2023-02-07T13:34:26.877Z,8
2023-02-07T13:35:26.796Z,12
2023-02-07T13:36:26.885Z,8
2023-02-07T13:37:27.393Z,9
2023-02-07T13:38:27.323Z,11
2023-02-07T13:39:26.892Z,9
2023-02-07T13:40:26.905Z,6
2023-02-07T13:41:27.186Z,14
2023-02-07T13:42:27.305Z,12
2023-02-07T13:43:27.477Z,10
2023-02-07T13:44:26.807Z,6
2023-02-07T13:45:26.814Z,8
2023-02-07T13:46:27.213Z,13
2023-02-07T13:47:27.294Z,5
2023-02-07T13:48:27.784Z,10
2023-02-07T13:49:26.882Z,7
2023-02-07T13:50:26.805Z,8
2023-02-07T13:51:26.894Z,16
2023-02-07T13:52:27.007Z,12
2023-02-07T13:53:26.826Z,7
2023-02-07T13:54:26.868Z,5
2023-02-07T13:55:27.020Z,6
2023-02-07T13:56:27.333Z,9
2023-02-07T13:57:26.820Z,7
2023-02-07T13:58:26.820Z,10
2023-02-07T13:59:27.635Z,8
2023-02-07T14:00:27.692Z,16
2023-02-07T14:01:27.597Z,9
2023-02-07T14:02:26.890Z,9
2023-02-07T14:03:27.276Z,11
2023-02-07T14:04:27.800Z,12
2023-02-07T14:05:26.966Z,12
2023-02-07T14:06:26.843Z,9
2023-02-07T14:07:26.998Z,4
2023-02-07T14:08:27.499Z,5
2023-02-07T14:09:27.121Z,12
2023-02-07T14:10:26.852Z,17
2023-02-07T14:11:26.864Z,27
2023-02-07T14:12:26.811Z,8
2023-02-07T14:13:26.889Z,10
2023-02-07T14:14:27.698Z,7
2023-02-07T14:15:27.495Z,11
2023-02-07T14:16:27.412Z,12
2023-02-07T14:17:27.750Z,12
2023-02-07T14:18:26.838Z,12
2023-02-07T14:19:26.914Z,5
2023-02-07T14:20:26.857Z,3
2023-02-07T14:21:27.328Z,4
2023-02-07T14:22:27.129Z,5
2023-02-07T14:23:27.162Z,4
2023-02-07T14:24:27.632Z,8
2023-02-07T14:25:27.276Z,19
2023-02-07T14:26:27.659Z,14
2023-02-07T14:27:27.033Z,13
2023-02-07T14:28:26.904Z,11
2023-02-07T14:29:26.981Z,9
2023-02-07T14:30:27.547Z,6
2023-02-07T14:31:27.025Z,6
2023-02-07T14:32:26.872Z,7
2023-02-07T14:33:27.285Z,5
2023-02-07T14:34:26.901Z,5
2023-02-07T14:35:27.076Z,5
2023-02-07T14:36:27.225Z,4
2023-02-07T14:37:26.915Z,5
2023-02-07T14:38:26.841Z,10
2023-02-07T14:39:26.929Z,17
2023-02-07T14:40:26.813Z,13
2023-02-07T14:41:26.825Z,15
2023-02-07T14:42:27.426Z,18